Paynesville, Missouri
Current Conditions -  °F | °C
As of 11:55 PM on Thursday 30 Oct 2014 (Local Time) from KPPQ Reporting Station
Scattered Clouds Scattered Clouds  
Wind Chill: 46°   Ceiling: Unl
Heat Index: 46°   Visibility: 10mi
Dew Point: 42°   Wind: 3mph
Humidity: 87%   Direction: 360°N
Pressure: 30.09"   Gusts: NA
Location:  39.3277°N, 90.9481°W
Report Text: KPPQ 310455Z AUTO 36003KT 10SM SCT095 SCT120 08/06 A3009 RMK AO2 T00770057
Loading
Personal Weather Stations






























Interactive Weather Map
Tropical Storm Tracking
New forecast layout! Learn more

10-Day Weather Forecast

Advertisements
Track Severe Weather on mobile